createdAt,value
2023-03-20T00:02:36.499Z,96603.63
2023-03-20T00:05:26.497Z,96590.47
2023-03-20T00:08:16.050Z,96606.25
2023-03-20T00:11:04.699Z,96604.38
2023-03-20T00:13:55.465Z,96614.38
2023-03-20T00:16:46.698Z,96606.97
2023-03-20T00:19:36.581Z,96602.84
2023-03-20T00:22:25.289Z,96606.50
2023-03-20T00:25:16.925Z,96603.94
2023-03-20T00:28:27.477Z,96601.66
2023-03-20T00:31:26.711Z,96596.50
2023-03-20T00:34:19.653Z,96600.28
2023-03-20T00:37:08.772Z,96596.16
2023-03-20T00:39:57.374Z,96575.56
2023-03-20T00:42:48.753Z,96606.75
2023-03-20T00:45:37.835Z,96593.78
2023-03-20T00:48:27.044Z,96599.56
2023-03-20T00:51:17.213Z,96602.41
2023-03-20T00:54:07.346Z,96599.94
2023-03-20T00:57:00.561Z,96523.09
2023-03-20T00:59:55.096Z,96596.53
2023-03-20T01:02:43.931Z,96595.13
2023-03-20T01:05:33.376Z,96597.69
2023-03-20T01:08:25.525Z,96597.81
2023-03-20T01:11:15.947Z,96599.09
2023-03-20T01:14:05.147Z,96603.34
2023-03-20T01:16:54.892Z,96594.28
2023-03-20T01:19:43.672Z,96597.44
2023-03-20T01:22:34.874Z,96598.75
2023-03-20T01:25:25.461Z,96601.94
2023-03-20T01:28:18.330Z,96598.84
2023-03-20T01:31:07.259Z,96609.00
2023-03-20T01:33:57.504Z,96598.41
2023-03-20T01:36:50.822Z,96594.88
2023-03-20T01:39:40.017Z,96600.41
2023-03-20T01:42:30.852Z,96601.31
2023-03-20T01:45:22.771Z,96603.19
2023-03-20T01:48:20.138Z,96611.28
2023-03-20T01:51:09.797Z,96601.78
2023-03-20T01:54:04.202Z,96602.59
2023-03-20T01:57:01.779Z,96597.38
2023-03-20T01:59:54.992Z,96602.44
2023-03-20T02:02:46.617Z,96601.03
2023-03-20T02:05:48.807Z,96597.38
2023-03-20T02:08:43.281Z,96600.19
2023-03-20T02:11:32.098Z,96598.75
2023-03-20T02:14:23.087Z,96599.47
2023-03-20T02:17:21.452Z,96597.81
2023-03-20T02:20:33.024Z,96589.00
2023-03-20T02:23:53.506Z,96601.94
2023-03-20T02:27:02.427Z,96607.59
2023-03-20T02:30:26.119Z,96607.09
2023-03-20T02:33:48.018Z,96608.66
2023-03-20T02:36:51.626Z,96602.84
2023-03-20T02:39:54.866Z,96593.34
2023-03-20T02:42:52.470Z,96603.00
2023-03-20T02:45:48.270Z,96598.75
2023-03-20T02:48:50.262Z,96609.22
2023-03-20T02:51:48.894Z,96601.56
2023-03-20T02:54:47.585Z,96604.41
2023-03-20T02:57:48.465Z,96609.50
2023-03-20T03:00:43.646Z,96609.16
2023-03-20T03:03:38.289Z,96598.78
2023-03-20T03:06:33.003Z,96611.16
2023-03-20T03:09:26.261Z,96606.13
2023-03-20T03:12:20.272Z,96609.19
2023-03-20T03:15:17.352Z,96612.50
2023-03-20T03:18:13.184Z,96610.97
2023-03-20T03:21:03.643Z,96625.56
2023-03-20T03:23:54.475Z,96616.84
2023-03-20T03:26:43.390Z,96615.31
2023-03-20T03:29:37.637Z,96621.72
2023-03-20T03:32:33.397Z,96622.78
2023-03-20T03:35:25.023Z,96630.50
2023-03-20T03:38:28.414Z,96631.78
2023-03-20T03:41:23.641Z,96626.72
2023-03-20T03:44:18.250Z,96621.41
2023-03-20T03:47:11.546Z,96629.09
2023-03-20T03:50:06.361Z,96636.72
2023-03-20T03:53:00.296Z,96627.81
2023-03-20T03:55:53.480Z,96633.94
2023-03-20T03:58:45.125Z,96638.91
2023-03-20T04:01:35.914Z,96637.72
2023-03-20T04:04:26.736Z,96639.00
2023-03-20T04:07:17.320Z,96643.13
2023-03-20T04:10:07.170Z,96649.81
2023-03-20T04:12:56.150Z,96645.66
2023-03-20T04:15:45.491Z,96646.72
2023-03-20T04:18:34.170Z,96645.06
2023-03-20T04:21:23.094Z,96656.72
2023-03-20T04:24:15.734Z,96657.53
2023-03-20T04:27:05.195Z,96660.88
2023-03-20T04:29:55.193Z,96652.53
2023-03-20T04:33:07.729Z,96655.06
2023-03-20T04:36:06.284Z,96659.06
2023-03-20T04:38:57.479Z,96654.59
2023-03-20T04:41:49.566Z,96659.56
2023-03-20T04:44:38.338Z,96665.22
2023-03-20T04:47:30.067Z,96666.72
2023-03-20T04:50:19.050Z,96661.78
2023-03-20T04:53:08.844Z,96662.81
2023-03-20T04:56:00.606Z,96670.63
2023-03-20T04:58:53.159Z,96673.31
2023-03-20T05:01:43.371Z,96666.78
2023-03-20T05:04:33.226Z,96662.59
2023-03-20T05:07:22.357Z,96671.28
2023-03-20T05:10:21.146Z,96675.19
2023-03-20T05:13:16.386Z,96666.34
2023-03-20T05:16:33.206Z,96660.13
2023-03-20T05:19:47.515Z,96669.41
2023-03-20T05:22:57.181Z,96641.38
2023-03-20T05:26:06.208Z,96673.31
2023-03-20T05:29:33.043Z,96684.88
2023-03-20T05:32:26.668Z,96682.19
2023-03-20T05:35:42.198Z,96677.34
2023-03-20T05:38:48.956Z,96684.66
2023-03-20T05:41:57.899Z,96689.81
2023-03-20T05:45:06.460Z,96690.22
2023-03-20T05:48:11.828Z,96688.69
2023-03-20T05:51:03.797Z,96697.03
2023-03-20T05:54:03.643Z,96703.41
2023-03-20T05:57:17.619Z,96688.69
2023-03-20T06:00:27.719Z,96687.78
2023-03-20T06:03:39.060Z,96715.50
2023-03-20T06:06:37.822Z,96717.84
2023-03-20T06:09:26.645Z,96719.50
2023-03-20T06:12:16.596Z,96716.19
2023-03-20T06:15:06.513Z,96722.66
2023-03-20T06:18:00.130Z,96728.88
2023-03-20T06:20:55.273Z,96703.50
2023-03-20T06:23:44.356Z,96730.78
2023-03-20T06:26:33.061Z,96725.13
2023-03-20T06:29:25.969Z,96731.13
2023-03-20T06:32:19.318Z,96736.69
2023-03-20T06:35:14.706Z,96727.59
2023-03-20T06:38:08.870Z,96747.28
2023-03-20T06:40:58.750Z,96746.69
2023-03-20T06:43:47.386Z,96745.63
2023-03-20T06:46:37.316Z,96748.34
2023-03-20T06:49:26.582Z,96750.56
2023-03-20T06:52:18.401Z,96752.09
2023-03-20T06:55:19.358Z,96747.13
2023-03-20T06:58:08.368Z,96751.28
2023-03-20T07:00:58.811Z,96752.44
2023-03-20T07:03:48.775Z,96744.41
2023-03-20T07:06:43.173Z,96752.44
2023-03-20T07:09:33.403Z,96739.97
2023-03-20T07:12:29.017Z,96751.78
2023-03-20T07:15:21.199Z,96754.41
2023-03-20T07:18:11.133Z,96759.09
2023-03-20T07:21:03.880Z,96742.03
2023-03-20T07:23:53.352Z,96754.75
2023-03-20T07:26:42.645Z,96767.41
2023-03-20T07:29:32.793Z,96764.03
2023-03-20T07:32:21.784Z,96771.44
2023-03-20T07:35:14.149Z,96764.53
2023-03-20T07:38:04.514Z,96770.09
2023-03-20T07:40:55.253Z,96769.97
2023-03-20T07:43:44.873Z,96784.72
2023-03-20T07:46:44.582Z,96785.69
2023-03-20T07:49:34.127Z,96780.84
2023-03-20T07:52:22.809Z,96794.88
2023-03-20T07:55:11.788Z,96795.94
2023-03-20T07:58:00.848Z,96793.00
2023-03-20T08:00:49.501Z,96795.25
2023-03-20T08:03:39.767Z,96801.84
2023-03-20T08:06:29.114Z,96794.53
2023-03-20T08:09:19.286Z,96800.59
2023-03-20T08:12:08.546Z,96794.44
2023-03-20T08:14:57.628Z,96805.19
2023-03-20T08:17:46.732Z,96797.63
2023-03-20T08:20:36.765Z,96800.59
2023-03-20T08:23:25.435Z,96805.75
2023-03-20T08:26:14.024Z,96796.00
2023-03-20T08:29:03.063Z,96803.88
2023-03-20T08:31:51.754Z,96797.31
2023-03-20T08:34:40.384Z,96804.94
2023-03-20T08:37:31.002Z,96797.69
2023-03-20T08:40:19.736Z,96793.09
2023-03-20T08:43:08.669Z,96792.06
2023-03-20T08:45:57.359Z,96796.78
2023-03-20T08:48:47.869Z,96793.63
2023-03-20T08:51:36.615Z,96794.56
2023-03-20T08:54:27.121Z,96789.94
2023-03-20T08:57:15.828Z,96789.06
2023-03-20T09:00:06.359Z,96798.78
2023-03-20T09:02:55.096Z,96794.09
2023-03-20T09:05:46.423Z,96802.25
2023-03-20T09:08:35.098Z,96790.81
2023-03-20T09:11:25.951Z,96779.41
2023-03-20T09:14:14.940Z,96785.75
2023-03-20T09:17:04.155Z,96797.00
2023-03-20T09:19:52.800Z,96782.31
2023-03-20T09:22:44.132Z,96794.22
2023-03-20T09:25:32.729Z,96796.53
2023-03-20T09:28:23.625Z,96803.63
2023-03-20T09:31:14.958Z,96808.81
2023-03-20T09:34:03.868Z,96804.09
2023-03-20T09:36:54.488Z,96804.81
2023-03-20T09:39:43.302Z,96816.69
2023-03-20T09:42:48.166Z,96817.16
2023-03-20T09:45:52.325Z,96809.63
2023-03-20T09:48:47.496Z,96806.63
2023-03-20T09:51:43.801Z,96806.91
2023-03-20T09:54:53.197Z,96796.47
2023-03-20T09:57:47.409Z,96801.34
2023-03-20T10:00:44.477Z,96806.72
2023-03-20T10:03:43.499Z,96799.50
2023-03-20T10:06:32.511Z,96794.41
2023-03-20T10:09:24.822Z,96795.00
2023-03-20T10:12:46.112Z,96779.47
2023-03-20T10:15:47.381Z,96786.78
2023-03-20T10:18:41.469Z,96792.16
2023-03-20T10:21:38.152Z,96781.72
2023-03-20T10:24:31.037Z,96781.13
2023-03-20T10:27:26.258Z,96796.63
2023-03-20T10:30:29.982Z,96782.63
2023-03-20T10:33:38.494Z,96795.22
2023-03-20T10:36:40.790Z,96791.41
2023-03-20T10:39:42.055Z,96761.66
2023-03-20T10:42:34.697Z,96784.22
2023-03-20T10:45:33.154Z,96780.38
2023-03-20T10:48:28.009Z,96774.84
2023-03-20T10:51:20.322Z,96774.47
2023-03-20T10:54:19.785Z,96773.84
2023-03-20T10:57:16.957Z,96765.44
2023-03-20T11:00:11.072Z,96757.78
2023-03-20T11:02:59.867Z,96760.22
2023-03-20T11:06:08.525Z,96758.69
2023-03-20T11:08:58.356Z,96755.56
2023-03-20T11:11:48.141Z,96745.72
2023-03-20T11:14:40.362Z,96747.31
2023-03-20T11:17:30.307Z,96763.19
2023-03-20T11:20:19.002Z,96755.69
2023-03-20T11:23:09.313Z,96762.19
2023-03-20T11:26:01.325Z,96755.84
2023-03-20T11:28:53.830Z,96748.00
2023-03-20T11:31:43.236Z,96751.66
2023-03-20T11:34:34.620Z,96752.63
2023-03-20T11:37:25.921Z,96757.66
2023-03-20T11:40:22.912Z,96750.19
2023-03-20T11:43:13.963Z,96747.72
2023-03-20T11:46:04.389Z,96757.22
2023-03-20T11:49:07.704Z,96757.38
2023-03-20T11:52:02.377Z,96752.59
2023-03-20T11:54:53.670Z,96753.50
2023-03-20T11:57:47.385Z,96755.47
2023-03-20T12:00:38.587Z,96755.91
2023-03-20T12:03:52.435Z,96748.22
2023-03-20T12:06:47.314Z,96750.22
2023-03-20T12:09:40.954Z,96744.84
2023-03-20T12:12:41.016Z,96749.25
2023-03-20T12:15:35.432Z,96739.84
2023-03-20T12:18:32.752Z,96739.53
2023-03-20T12:21:25.787Z,96737.47
2023-03-20T12:24:25.236Z,96744.94
2023-03-20T12:27:25.047Z,96731.75
2023-03-20T12:30:19.103Z,96732.06
2023-03-20T12:33:16.554Z,96735.84
2023-03-20T12:36:11.687Z,96742.00
2023-03-20T12:39:01.064Z,96732.59
2023-03-20T12:42:09.526Z,96730.66
2023-03-20T12:45:06.784Z,96741.84
2023-03-20T12:48:17.249Z,96737.13
2023-03-20T12:51:13.536Z,96737.41
2023-03-20T12:54:16.333Z,96727.34
2023-03-20T12:57:18.922Z,96735.59
2023-03-20T13:00:19.238Z,96733.69
2023-03-20T13:03:27.909Z,96730.53
2023-03-20T13:06:24.288Z,96711.06
2023-03-20T13:09:44.680Z,96717.25
2023-03-20T13:12:41.314Z,96717.03
2023-03-20T13:15:48.530Z,96719.03
2023-03-20T13:18:52.586Z,96720.94
2023-03-20T13:21:50.092Z,96715.22
2023-03-20T13:24:43.407Z,96710.09
2023-03-20T13:27:40.393Z,96714.75
2023-03-20T13:30:35.795Z,96700.56
2023-03-20T13:33:38.346Z,96715.56
2023-03-20T13:36:44.720Z,96703.97
2023-03-20T13:39:38.269Z,96704.72
2023-03-20T13:42:32.159Z,96710.50
2023-03-20T13:45:31.385Z,96710.75
2023-03-20T13:48:30.155Z,96709.56
2023-03-20T13:51:27.449Z,96704.28
2023-03-20T13:54:40.182Z,96698.72
2023-03-20T13:57:46.138Z,96696.78
2023-03-20T14:00:40.115Z,96696.00
2023-03-20T14:03:33.156Z,96693.19
2023-03-20T14:06:48.437Z,96690.41
2023-03-20T14:09:38.799Z,96693.31
2023-03-20T14:12:33.290Z,96700.16
2023-03-20T14:15:22.750Z,96697.41
2023-03-20T14:18:17.560Z,96692.03
2023-03-20T14:21:13.707Z,96695.84
2023-03-20T14:24:04.948Z,96693.19
2023-03-20T14:26:58.534Z,96681.59
2023-03-20T14:29:47.702Z,96688.50
2023-03-20T14:32:37.775Z,96691.47
2023-03-20T14:35:29.383Z,96689.31
2023-03-20T14:38:27.455Z,96692.31
2023-03-20T14:41:22.490Z,96686.94
2023-03-20T14:44:26.320Z,96679.13
2023-03-20T14:47:33.562Z,96686.25
2023-03-20T14:50:27.763Z,96684.03
2023-03-20T14:53:19.964Z,96677.22
2023-03-20T14:56:11.982Z,96684.56
2023-03-20T14:59:06.497Z,96684.56
2023-03-20T15:01:59.080Z,96670.94
2023-03-20T15:04:49.064Z,96679.78
2023-03-20T15:07:40.550Z,96583.47
2023-03-20T15:10:30.163Z,96644.28
2023-03-20T15:13:20.584Z,96662.88
2023-03-20T15:16:12.865Z,96670.97
2023-03-20T15:19:18.689Z,96648.03
2023-03-20T15:22:25.159Z,96669.53
2023-03-20T15:25:18.650Z,96664.09
2023-03-20T15:28:14.479Z,96668.22
2023-03-20T15:31:06.929Z,96654.34
2023-03-20T15:33:57.229Z,96658.97
2023-03-20T15:36:49.481Z,96644.28
2023-03-20T15:39:45.002Z,96652.25
2023-03-20T15:42:34.136Z,96647.72
2023-03-20T15:45:27.200Z,96646.19
2023-03-20T15:48:21.674Z,96633.94
2023-03-20T15:51:11.804Z,96642.94
2023-03-20T15:54:08.343Z,96640.59
2023-03-20T15:57:01.213Z,96648.34
2023-03-20T15:59:49.932Z,96643.75
2023-03-20T16:02:39.582Z,96648.56
2023-03-20T16:05:30.121Z,96636.53
2023-03-20T16:08:26.116Z,96635.97
2023-03-20T16:11:19.240Z,96639.75
2023-03-20T16:14:11.491Z,96621.06
2023-03-20T16:17:02.648Z,96630.25
2023-03-20T16:19:51.793Z,96631.81
2023-03-20T16:22:42.742Z,96637.72
2023-03-20T16:25:32.169Z,96641.22
2023-03-20T16:28:22.396Z,96625.75
2023-03-20T16:31:17.139Z,96627.59
2023-03-20T16:34:09.078Z,96645.91
2023-03-20T16:37:00.117Z,96644.72
2023-03-20T16:39:48.747Z,96638.09
2023-03-20T16:42:38.730Z,96647.78
2023-03-20T16:45:31.348Z,96651.22
2023-03-20T16:48:28.131Z,96642.09
2023-03-20T16:51:22.264Z,96643.66
2023-03-20T16:54:21.165Z,96645.19
2023-03-20T16:57:10.973Z,96642.97
2023-03-20T17:00:04.725Z,96650.31
2023-03-20T17:03:02.001Z,96647.03
2023-03-20T17:05:56.287Z,96657.59
2023-03-20T17:08:50.363Z,96647.75
2023-03-20T17:11:41.321Z,96655.84
2023-03-20T17:14:31.143Z,96658.47
2023-03-20T17:17:22.309Z,96643.09
2023-03-20T17:20:20.299Z,96664.34
2023-03-20T17:23:14.249Z,96666.19
2023-03-20T17:26:03.100Z,96660.94
2023-03-20T17:28:52.085Z,96655.34
2023-03-20T17:31:41.604Z,96656.97
2023-03-20T17:34:31.792Z,96658.00
2023-03-20T17:37:28.315Z,96659.56
2023-03-20T17:40:20.639Z,96665.75
2023-03-20T17:43:12.450Z,96661.66
2023-03-20T17:46:01.154Z,96659.19
2023-03-20T17:48:51.102Z,96662.72
2023-03-20T17:51:40.690Z,96657.84
2023-03-20T17:54:30.718Z,96666.59
2023-03-20T17:57:23.424Z,96672.09
2023-03-20T18:00:18.067Z,96669.38
2023-03-20T18:03:06.757Z,96666.91
2023-03-20T18:05:55.927Z,96665.75
2023-03-20T18:08:44.694Z,96665.13
2023-03-20T18:11:34.688Z,96673.69
2023-03-20T18:14:24.483Z,96671.13
2023-03-20T18:17:14.475Z,96673.13
2023-03-20T18:20:03.869Z,96665.41
2023-03-20T18:22:52.460Z,96679.97
2023-03-20T18:25:42.615Z,96670.91
2023-03-20T18:28:32.593Z,96673.22
2023-03-20T18:31:21.731Z,96670.91
2023-03-20T18:34:10.400Z,96670.25
2023-03-20T18:36:59.041Z,96670.31
2023-03-20T18:39:47.616Z,96675.06
2023-03-20T18:42:36.214Z,96676.97
2023-03-20T18:45:27.898Z,96681.00
2023-03-20T18:48:17.350Z,96678.19
2023-03-20T18:51:06.424Z,96671.84
2023-03-20T18:53:55.443Z,96684.00
2023-03-20T18:56:44.614Z,96680.50
2023-03-20T18:59:33.770Z,96676.88
2023-03-20T19:02:23.730Z,96680.28
2023-03-20T19:05:12.831Z,96671.09
2023-03-20T19:08:03.226Z,96673.34
2023-03-20T19:10:53.214Z,96674.88
2023-03-20T19:13:44.830Z,96683.88
2023-03-20T19:16:37.895Z,96689.53
2023-03-20T19:19:29.633Z,96681.06
2023-03-20T19:22:29.372Z,96679.63
2023-03-20T19:25:19.071Z,96684.03
2023-03-20T19:28:11.536Z,96684.13
2023-03-20T19:31:06.378Z,96688.97
2023-03-20T19:33:57.203Z,96685.66
2023-03-20T19:36:48.994Z,96687.56
2023-03-20T19:39:37.567Z,96688.63
2023-03-20T19:45:37.865Z,96694.84
2023-03-20T19:51:36.224Z,96698.50
2023-03-20T19:54:28.437Z,96698.50
2023-03-20T19:57:17.623Z,96695.88
2023-03-20T20:03:19.590Z,96699.31
2023-03-20T20:06:09.853Z,96698.34
2023-03-20T20:08:59.161Z,96681.59
2023-03-20T20:11:49.967Z,96692.91
2023-03-20T20:14:39.077Z,96687.00
2023-03-20T20:17:27.698Z,96693.69
2023-03-20T20:20:20.630Z,96690.63
2023-03-20T20:23:15.704Z,96695.66
2023-03-20T20:26:05.749Z,96697.88
2023-03-20T20:28:55.820Z,96696.69
2023-03-20T20:31:45.232Z,96695.69
2023-03-20T20:40:54.002Z,96697.19
2023-03-20T20:44:14.213Z,96694.56
2023-03-20T20:46:53.388Z,96696.53
2023-03-20T20:49:42.880Z,96697.03
2023-03-20T20:52:31.797Z,96695.34
2023-03-20T20:55:24.223Z,96700.94
2023-03-20T20:58:14.064Z,96697.31
2023-03-20T21:01:03.177Z,96700.34
2023-03-20T21:03:54.698Z,96687.81
2023-03-20T21:07:07.392Z,96691.81
2023-03-20T21:09:54.608Z,96692.72
2023-03-20T21:12:58.148Z,96697.16
2023-03-20T21:15:48.174Z,96701.66
2023-03-20T21:18:37.325Z,96696.84
2023-03-20T21:21:28.488Z,96691.22
2023-03-20T21:24:31.590Z,96692.13
2023-03-20T21:27:23.117Z,96697.81
2023-03-20T21:30:12.548Z,96704.03
2023-03-20T21:33:01.319Z,96704.69
2023-03-20T21:35:51.779Z,96698.69
2023-03-20T21:41:51.445Z,96695.94
2023-03-20T21:48:39.405Z,96687.72
2023-03-20T21:51:49.531Z,96696.06
2023-03-20T21:58:00.192Z,96693.88
2023-03-20T22:10:46.101Z,96700.72
2023-03-20T22:13:59.461Z,96702.13
2023-03-20T22:17:17.616Z,96693.19
2023-03-20T22:20:19.609Z,96690.50
2023-03-20T22:29:44.052Z,96692.53
2023-03-20T22:36:10.906Z,96684.63
2023-03-20T22:39:14.149Z,96692.66
2023-03-20T22:42:26.003Z,96692.06
2023-03-20T22:45:01.407Z,96693.31
2023-03-20T22:47:51.537Z,96685.50
2023-03-20T22:50:41.055Z,96690.31
2023-03-20T22:53:30.988Z,96682.28
2023-03-20T22:56:20.420Z,96695.34
2023-03-20T22:59:10.398Z,96687.66
2023-03-20T23:01:59.358Z,96690.00
2023-03-20T23:04:48.298Z,96684.88
2023-03-20T23:07:37.642Z,96681.19
2023-03-20T23:10:26.897Z,96688.75
2023-03-20T23:13:17.035Z,96686.03
2023-03-20T23:16:08.901Z,96682.06
2023-03-20T23:18:58.169Z,96686.81
2023-03-20T23:21:46.776Z,96678.78
2023-03-20T23:24:35.384Z,96680.69
2023-03-20T23:27:23.969Z,96680.88
2023-03-20T23:30:14.659Z,96684.34
2023-03-20T23:33:05.710Z,96675.66
2023-03-20T23:36:01.285Z,96672.25
2023-03-20T23:38:53.863Z,96670.19
2023-03-20T23:42:12.040Z,96669.41
2023-03-20T23:44:58.697Z,96667.91
2023-03-20T23:47:49.580Z,96667.13
2023-03-20T23:50:52.178Z,96667.13
2023-03-20T23:53:42.160Z,96668.59
2023-03-20T23:56:31.625Z,96658.00
2023-03-20T23:59:22.421Z,96662.56
